sensor_id;sensor_type;location;lat;lon;timestamp;pressure;altitude;pressure_sealevel;temperature;humidity
13732;BME280;6937;56.096;12.664;2022-07-06T00:01:37;104686.38;;;14.30;100.00
13732;BME280;6937;56.096;12.664;2022-07-06T00:04:03;104671.44;;;14.17;100.00
13732;BME280;6937;56.096;12.664;2022-07-06T00:06:29;104696.25;;;14.30;100.00
13732;BME280;6937;56.096;12.664;2022-07-06T00:08:54;104705.19;;;14.32;100.00
13732;BME280;6937;56.096;12.664;2022-07-06T00:11:20;104691.75;;;14.30;100.00
13732;BME280;6937;56.096;12.664;2022-07-06T00:13:46;104685.47;;;14.31;100.00
13732;BME280;6937;56.096;12.664;2022-07-06T00:16:11;104678.22;;;14.33;100.00
13732;BME280;6937;56.096;12.664;2022-07-06T00:18:36;104658.44;;;14.36;100.00
13732;BME280;6937;56.096;12.664;2022-07-06T00:21:02;104636.88;;;14.37;100.00
13732;BME280;6937;56.096;12.664;2022-07-06T00:23:28;104638.59;;;14.40;100.00
13732;BME280;6937;56.096;12.664;2022-07-06T00:25:53;104615.31;;;14.39;100.00
13732;BME280;6937;56.096;12.664;2022-07-06T00:28:18;104589.22;;;14.41;100.00
13732;BME280;6937;56.096;12.664;2022-07-06T00:30:44;104586.50;;;14.42;100.00
13732;BME280;6937;56.096;12.664;2022-07-06T00:33:09;104554.50;;;14.30;100.00
13732;BME280;6937;56.096;12.664;2022-07-06T00:35:35;104559.59;;;14.41;100.00
13732;BME280;6937;56.096;12.664;2022-07-06T00:38:00;104520.31;;;14.35;100.00
13732;BME280;6937;56.096;12.664;2022-07-06T00:40:26;104478.94;;;14.38;100.00
13732;BME280;6937;56.096;12.664;2022-07-06T00:42:52;104437.78;;;14.33;100.00
13732;BME280;6937;56.096;12.664;2022-07-06T00:45:18;104398.41;;;14.30;100.00
13732;BME280;6937;56.096;12.664;2022-07-06T00:47:45;104363.44;;;14.29;100.00
13732;BME280;6937;56.096;12.664;2022-07-06T00:50:12;104326.56;;;14.32;100.00
13732;BME280;6937;56.096;12.664;2022-07-06T00:52:48;104289.13;;;14.25;100.00
13732;BME280;6937;56.096;12.664;2022-07-06T00:55:16;104262.78;;;14.36;100.00
13732;BME280;6937;56.096;12.664;2022-07-06T00:57:42;104241.97;;;14.41;100.00
13732;BME280;6937;56.096;12.664;2022-07-06T01:00:13;104224.03;;;14.41;100.00
13732;BME280;6937;56.096;12.664;2022-07-06T01:02:39;104178.78;;;14.25;100.00
13732;BME280;6937;56.096;12.664;2022-07-06T01:05:06;104165.34;;;14.25;100.00
13732;BME280;6937;56.096;12.664;2022-07-06T01:07:32;104175.69;;;14.38;100.00
13732;BME280;6937;56.096;12.664;2022-07-06T01:09:58;104158.66;;;14.38;100.00
13732;BME280;6937;56.096;12.664;2022-07-06T01:12:24;104164.03;;;14.38;100.00
13732;BME280;6937;56.096;12.664;2022-07-06T01:14:50;104166.72;;;14.38;100.00
13732;BME280;6937;56.096;12.664;2022-07-06T01:17:17;104162.25;;;14.37;100.00
13732;BME280;6937;56.096;12.664;2022-07-06T01:19:42;104166.72;;;14.38;100.00
13732;BME280;6937;56.096;12.664;2022-07-06T01:22:09;104188.22;;;14.39;100.00
13732;BME280;6937;56.096;12.664;2022-07-06T01:24:35;104201.59;;;14.41;100.00
13732;BME280;6937;56.096;12.664;2022-07-06T01:27:01;104212.47;;;14.38;100.00
13732;BME280;6937;56.096;12.664;2022-07-06T01:29:27;104262.59;;;14.42;100.00
13732;BME280;6937;56.096;12.664;2022-07-06T01:31:53;104251.84;;;14.40;100.00
13732;BME280;6937;56.096;12.664;2022-07-06T01:34:19;104220.56;;;14.38;100.00
13732;BME280;6937;56.096;12.664;2022-07-06T01:36:45;104202.53;;;14.40;100.00
13732;BME280;6937;56.096;12.664;2022-07-06T01:39:11;104188.03;;;14.44;100.00
13732;BME280;6937;56.096;12.664;2022-07-06T01:41:36;104195.19;;;14.45;100.00
13732;BME280;6937;56.096;12.664;2022-07-06T01:44:02;104158.84;;;14.32;100.00
13732;BME280;6937;56.096;12.664;2022-07-06T01:46:28;104154.00;;;14.43;100.00
13732;BME280;6937;56.096;12.664;2022-07-06T01:48:54;104152.09;;;14.46;100.00
13732;BME280;6937;56.096;12.664;2022-07-06T01:51:19;104159.19;;;14.47;100.00
13732;BME280;6937;56.096;12.664;2022-07-06T01:53:45;104168.22;;;14.46;100.00
13732;BME280;6937;56.096;12.664;2022-07-06T01:56:11;104170.22;;;14.40;100.00
13732;BME280;6937;56.096;12.664;2022-07-06T01:58:37;104187.59;;;14.30;100.00
13732;BME280;6937;56.096;12.664;2022-07-06T02:01:11;104216.94;;;14.39;100.00
13732;BME280;6937;56.096;12.664;2022-07-06T02:03:37;104233.13;;;14.37;100.00
13732;BME280;6937;56.096;12.664;2022-07-06T02:06:03;104252.97;;;14.33;100.00
13732;BME280;6937;56.096;12.664;2022-07-06T02:08:30;104263.84;;;14.30;100.00
13732;BME280;6937;56.096;12.664;2022-07-06T02:10:55;104263.84;;;14.30;100.00
13732;BME280;6937;56.096;12.664;2022-07-06T02:13:21;104287.16;;;14.30;100.00
13732;BME280;6937;56.096;12.664;2022-07-06T02:15:46;104283.84;;;14.22;100.00
13732;BME280;6937;56.096;12.664;2022-07-06T02:18:11;104318.66;;;14.28;100.00
13732;BME280;6937;56.096;12.664;2022-07-06T02:20:37;104335.72;;;14.27;100.00
13732;BME280;6937;56.096;12.664;2022-07-06T02:23:02;104389.53;;;14.27;100.00
13732;BME280;6937;56.096;12.664;2022-07-06T02:25:28;104474.63;;;14.31;100.00
13732;BME280;6937;56.096;12.664;2022-07-06T02:27:53;104536.44;;;14.34;100.00
13732;BME280;6937;56.096;12.664;2022-07-06T02:30:18;104544.56;;;14.32;100.00
13732;BME280;6937;56.096;12.664;2022-07-06T02:32:44;104556.28;;;14.31;100.00
13732;BME280;6937;56.096;12.664;2022-07-06T02:35:09;104511.44;;;14.30;100.00
13732;BME280;6937;56.096;12.664;2022-07-06T02:37:34;104441.44;;;14.32;100.00
13732;BME280;6937;56.096;12.664;2022-07-06T02:40:00;104346.16;;;14.37;100.00
13732;BME280;6937;56.096;12.664;2022-07-06T02:42:26;104233.97;;;14.39;100.00
13732;BME280;6937;56.096;12.664;2022-07-06T02:44:53;104159.47;;;14.40;100.00
13732;BME280;6937;56.096;12.664;2022-07-06T02:47:18;104072.47;;;14.39;100.00
13732;BME280;6937;56.096;12.664;2022-07-06T02:49:44;103984.47;;;14.41;100.00
13732;BME280;6937;56.096;12.664;2022-07-06T02:52:09;103895.69;;;14.40;100.00
13732;BME280;6937;56.096;12.664;2022-07-06T02:54:35;103839.19;;;14.40;100.00
13732;BME280;6937;56.096;12.664;2022-07-06T02:57:00;103780.06;;;14.38;100.00
13732;BME280;6937;56.096;12.664;2022-07-06T02:59:25;103712.78;;;14.38;100.00
13732;BME280;6937;56.096;12.664;2022-07-06T03:01:50;103648.25;;;14.37;100.00
13732;BME280;6937;56.096;12.664;2022-07-06T03:04:16;103626.47;;;14.43;100.00
13732;BME280;6937;56.096;12.664;2022-07-06T03:06:41;103616.44;;;14.46;100.00
13732;BME280;6937;56.096;12.664;2022-07-06T03:09:07;103592.13;;;14.48;100.00
13732;BME280;6937;56.096;12.664;2022-07-06T03:11:32;103564.34;;;14.47;100.00
13732;BME280;6937;56.096;12.664;2022-07-06T03:14:04;103503.47;;;14.45;100.00
13732;BME280;6937;56.096;12.664;2022-07-06T03:16:30;103412.84;;;14.45;100.00
13732;BME280;6937;56.096;12.664;2022-07-06T03:18:55;103350.88;;;14.47;100.00
13732;BME280;6937;56.096;12.664;2022-07-06T03:21:21;103313.84;;;14.52;100.00
13732;BME280;6937;56.096;12.664;2022-07-06T03:23:47;103270.94;;;14.49;100.00
13732;BME280;6937;56.096;12.664;2022-07-06T03:26:12;103213.25;;;14.36;100.00
13732;BME280;6937;56.096;12.664;2022-07-06T03:28:37;103172.53;;;14.43;100.00
13732;BME280;6937;56.096;12.664;2022-07-06T03:31:03;103129.56;;;14.42;100.00
13732;BME280;6937;56.096;12.664;2022-07-06T03:33:28;103094.34;;;14.46;100.00
13732;BME280;6937;56.096;12.664;2022-07-06T03:35:53;103080.91;;;14.46;100.00
13732;BME280;6937;56.096;12.664;2022-07-06T03:38:19;103071.00;;;14.47;100.00
13732;BME280;6937;56.096;12.664;2022-07-06T03:40:44;103044.22;;;14.44;100.00
13732;BME280;6937;56.096;12.664;2022-07-06T03:43:09;103030.63;;;14.47;100.00
13732;BME280;6937;56.096;12.664;2022-07-06T03:45:35;102980.53;;;14.44;100.00
13732;BME280;6937;56.096;12.664;2022-07-06T03:48:00;102956.53;;;14.40;100.00
13732;BME280;6937;56.096;12.664;2022-07-06T03:50:26;102961.84;;;14.41;100.00
13732;BME280;6937;56.096;12.664;2022-07-06T03:52:51;102954.03;;;14.37;100.00
13732;BME280;6937;56.096;12.664;2022-07-06T03:55:16;102979.50;;;14.47;100.00
13732;BME280;6937;56.096;12.664;2022-07-06T03:57:42;102976.81;;;14.47;100.00
13732;BME280;6937;56.096;12.664;2022-07-06T04:00:10;102939.38;;;14.42;100.00
13732;BME280;6937;56.096;12.664;2022-07-06T04:02:36;102974.19;;;14.45;100.00
13732;BME280;6937;56.096;12.664;2022-07-06T04:05:01;102984.97;;;14.45;100.00
13732;BME280;6937;56.096;12.664;2022-07-06T04:07:26;103007.44;;;14.44;100.00
13732;BME280;6937;56.096;12.664;2022-07-06T04:09:52;103006.66;;;14.42;100.00
13732;BME280;6937;56.096;12.664;2022-07-06T04:12:17;102985.13;;;14.42;100.00
13732;BME280;6937;56.096;12.664;2022-07-06T04:14:43;102969.06;;;14.41;100.00
13732;BME280;6937;56.096;12.664;2022-07-06T04:17:08;102957.66;;;14.36;100.00
13732;BME280;6937;56.096;12.664;2022-07-06T04:19:52;102948.94;;;14.31;100.00
13732;BME280;6937;56.096;12.664;2022-07-06T04:22:18;102948.16;;;14.29;100.00
13732;BME280;6937;56.096;12.664;2022-07-06T04:24:43;102936.53;;;14.28;100.00
13732;BME280;6937;56.096;12.664;2022-07-06T04:27:08;102936.53;;;14.28;100.00
13732;BME280;6937;56.096;12.664;2022-07-06T04:29:34;102937.31;;;14.30;100.00
13732;BME280;6937;56.096;12.664;2022-07-06T04:31:59;102948.00;;;14.32;100.00
13732;BME280;6937;56.096;12.664;2022-07-06T04:34:25;102943.75;;;14.28;100.00
13732;BME280;6937;56.096;12.664;2022-07-06T04:36:50;102945.31;;;14.32;100.00
13732;BME280;6937;56.096;12.664;2022-07-06T04:39:15;102901.28;;;14.33;100.00
13732;BME280;6937;56.096;12.664;2022-07-06T04:41:41;102877.09;;;14.33;100.00
13732;BME280;6937;56.096;12.664;2022-07-06T04:44:06;102862.38;;;14.40;100.00
13732;BME280;6937;56.096;12.664;2022-07-06T04:46:31;102863.19;;;14.42;100.00
13732;BME280;6937;56.096;12.664;2022-07-06T04:48:57;102839.22;;;14.37;100.00
13732;BME280;6937;56.096;12.664;2022-07-06T04:51:22;102871.44;;;14.55;100.00
13732;BME280;6937;56.096;12.664;2022-07-06T04:53:47;102886.19;;;14.63;100.00
13732;BME280;6937;56.096;12.664;2022-07-06T04:56:13;102880.56;;;14.68;100.00
13732;BME280;6937;56.096;12.664;2022-07-06T04:58:38;102882.91;;;14.74;100.00
13732;BME280;6937;56.096;12.664;2022-07-06T05:01:03;102885.53;;;14.75;100.00
13732;BME280;6937;56.096;12.664;2022-07-06T05:03:29;102802.19;;;14.58;100.00
13732;BME280;6937;56.096;12.664;2022-07-06T05:05:54;102703.97;;;14.65;100.00
13732;BME280;6937;56.096;12.664;2022-07-06T05:08:20;102692.66;;;14.74;100.00
13732;BME280;6937;56.096;12.664;2022-07-06T05:10:45;102635.78;;;14.80;100.00
13732;BME280;6937;56.096;12.664;2022-07-06T05:13:10;102563.56;;;14.87;100.00
13732;BME280;6937;56.096;12.664;2022-07-06T05:15:36;102548.66;;;14.95;100.00
13732;BME280;6937;56.096;12.664;2022-07-06T05:18:01;102526.53;;;15.05;100.00
13732;BME280;6937;56.096;12.664;2022-07-06T05:20:26;102476.25;;;15.05;100.00
13732;BME280;6937;56.096;12.664;2022-07-06T05:22:52;102424.69;;;14.97;100.00
13732;BME280;6937;56.096;12.664;2022-07-06T05:25:17;102376.06;;;14.86;100.00
13732;BME280;6937;56.096;12.664;2022-07-06T05:27:43;102376.94;;;14.86;100.00
13732;BME280;6937;56.096;12.664;2022-07-06T05:30:08;102344.41;;;14.89;100.00
13732;BME280;6937;56.096;12.664;2022-07-06T05:32:34;102351.13;;;14.96;100.00
13732;BME280;6937;56.096;12.664;2022-07-06T05:34:59;102320.34;;;15.00;100.00
13732;BME280;6937;56.096;12.664;2022-07-06T05:37:25;102311.50;;;14.98;100.00
13732;BME280;6937;56.096;12.664;2022-07-06T05:39:50;102299.97;;;14.96;100.00
13732;BME280;6937;56.096;12.664;2022-07-06T05:42:16;102285.75;;;14.94;100.00
13732;BME280;6937;56.096;12.664;2022-07-06T05:44:41;102297.25;;;15.11;100.00
13732;BME280;6937;56.096;12.664;2022-07-06T05:47:07;102297.78;;;15.16;100.00
13732;BME280;6937;56.096;12.664;2022-07-06T05:49:51;102238.53;;;15.16;100.00
13732;BME280;6937;56.096;12.664;2022-07-06T05:52:35;102242.28;;;15.13;100.00
13732;BME280;6937;56.096;12.664;2022-07-06T05:55:00;102248.56;;;15.14;100.00
13732;BME280;6937;56.096;12.664;2022-07-06T05:57:26;102263.19;;;15.22;100.00
13732;BME280;6937;56.096;12.664;2022-07-06T05:59:51;102245.34;;;15.21;100.00
13732;BME280;6937;56.096;12.664;2022-07-06T06:02:17;102218.28;;;15.10;100.00
13732;BME280;6937;56.096;12.664;2022-07-06T06:04:42;102204.25;;;15.05;100.00
13732;BME280;6937;56.096;12.664;2022-07-06T06:07:07;102200.72;;;15.17;100.00
13732;BME280;6937;56.096;12.664;2022-07-06T06:09:33;102211.63;;;15.28;100.00
13732;BME280;6937;56.096;12.664;2022-07-06T06:11:58;102155.97;;;15.15;100.00
13732;BME280;6937;56.096;12.664;2022-07-06T06:14:23;102152.56;;;15.25;100.00
13732;BME280;6937;56.096;12.664;2022-07-06T06:16:49;102158.28;;;15.21;100.00
13732;BME280;6937;56.096;12.664;2022-07-06T06:19:14;102168.09;;;15.22;100.00
13732;BME280;6937;56.096;12.664;2022-07-06T06:21:40;102139.72;;;15.16;100.00
13732;BME280;6937;56.096;12.664;2022-07-06T06:24:06;102151.06;;;15.21;100.00
13732;BME280;6937;56.096;12.664;2022-07-06T06:26:31;102188.44;;;15.38;100.00
13732;BME280;6937;56.096;12.664;2022-07-06T06:28:56;102216.47;;;15.48;100.00
13732;BME280;6937;56.096;12.664;2022-07-06T06:31:22;102194.25;;;15.45;100.00
13732;BME280;6937;56.096;12.664;2022-07-06T06:33:47;102188.03;;;15.44;100.00
13732;BME280;6937;56.096;12.664;2022-07-06T06:36:12;102144.16;;;15.42;100.00
13732;BME280;6937;56.096;12.664;2022-07-06T06:38:38;102153.84;;;15.45;100.00
13732;BME280;6937;56.096;12.664;2022-07-06T06:41:03;102135.66;;;15.36;100.00
13732;BME280;6937;56.096;12.664;2022-07-06T06:43:29;102157.75;;;15.54;100.00
13732;BME280;6937;56.096;12.664;2022-07-06T06:45:54;102148.50;;;15.58;100.00
13732;BME280;6937;56.096;12.664;2022-07-06T06:48:20;102169.81;;;15.61;100.00
13732;BME280;6937;56.096;12.664;2022-07-06T06:50:45;102113.56;;;15.43;100.00
13732;BME280;6937;56.096;12.664;2022-07-06T06:53:11;102121.44;;;15.59;100.00
13732;BME280;6937;56.096;12.664;2022-07-06T06:55:37;102100.53;;;15.63;100.00
13732;BME280;6937;56.096;12.664;2022-07-06T06:58:02;102074.19;;;15.66;100.00
13732;BME280;6937;56.096;12.664;2022-07-06T07:00:27;102080.88;;;15.73;100.00
13732;BME280;6937;56.096;12.664;2022-07-06T07:02:53;102069.84;;;15.76;100.00
13732;BME280;6937;56.096;12.664;2022-07-06T07:05:18;102076.41;;;15.85;100.00
13732;BME280;6937;56.096;12.664;2022-07-06T07:07:43;102095.22;;;15.98;100.00
13732;BME280;6937;56.096;12.664;2022-07-06T07:10:09;102102.13;;;16.02;100.00
13732;BME280;6937;56.096;12.664;2022-07-06T07:12:35;102087.13;;;15.98;100.00
13732;BME280;6937;56.096;12.664;2022-07-06T07:15:07;102066.38;;;15.87;100.00
13732;BME280;6937;56.096;12.664;2022-07-06T07:17:32;102077.34;;;15.97;100.00
13732;BME280;6937;56.096;12.664;2022-07-06T07:19:58;102103.59;;;16.18;100.00
13732;BME280;6937;56.096;12.664;2022-07-06T07:22:23;102075.41;;;16.22;100.00
13732;BME280;6937;56.096;12.664;2022-07-06T07:24:50;102087.97;;;16.11;100.00
13732;BME280;6937;56.096;12.664;2022-07-06T07:27:15;102090.47;;;16.01;100.00
13732;BME280;6937;56.096;12.664;2022-07-06T07:29:41;102083.19;;;15.90;100.00
13732;BME280;6937;56.096;12.664;2022-07-06T07:32:06;102106.72;;;16.12;100.00
13732;BME280;6937;56.096;12.664;2022-07-06T07:34:32;102104.78;;;16.14;100.00
13732;BME280;6937;56.096;12.664;2022-07-06T07:36:57;102118.03;;;16.17;100.00
13732;BME280;6937;56.096;12.664;2022-07-06T07:39:22;102147.03;;;16.26;100.00
13732;BME280;6937;56.096;12.664;2022-07-06T07:41:48;102118.00;;;16.30;100.00
13732;BME280;6937;56.096;12.664;2022-07-06T07:44:15;102107.53;;;16.25;100.00
13732;BME280;6937;56.096;12.664;2022-07-06T07:46:41;102118.34;;;16.25;100.00
13732;BME280;6937;56.096;12.664;2022-07-06T07:49:06;102132.16;;;16.21;100.00
13732;BME280;6937;56.096;12.664;2022-07-06T07:51:32;102131.56;;;16.05;100.00
13732;BME280;6937;56.096;12.664;2022-07-06T07:53:58;102140.78;;;15.89;100.00
13732;BME280;6937;56.096;12.664;2022-07-06T07:56:23;102205.25;;;16.05;100.00
13732;BME280;6937;56.096;12.664;2022-07-06T07:58:49;102172.69;;;16.08;100.00
13732;BME280;6937;56.096;12.664;2022-07-06T08:01:14;102184.19;;;16.23;100.00
13732;BME280;6937;56.096;12.664;2022-07-06T08:03:39;102180.78;;;16.32;100.00
13732;BME280;6937;56.096;12.664;2022-07-06T08:06:05;102180.97;;;16.41;100.00
13732;BME280;6937;56.096;12.664;2022-07-06T08:08:30;102147.09;;;16.37;100.00
13732;BME280;6937;56.096;12.664;2022-07-06T08:10:55;102155.06;;;16.39;100.00
13732;BME280;6937;56.096;12.664;2022-07-06T08:13:21;102169.47;;;16.51;100.00
13732;BME280;6937;56.096;12.664;2022-07-06T08:15:46;102162.00;;;16.54;100.00
13732;BME280;6937;56.096;12.664;2022-07-06T08:18:12;102170.44;;;16.62;100.00
13732;BME280;6937;56.096;12.664;2022-07-06T08:20:37;102183.59;;;16.67;100.00
13732;BME280;6937;56.096;12.664;2022-07-06T08:23:03;102144.47;;;16.49;100.00
13732;BME280;6937;56.096;12.664;2022-07-06T08:25:29;102166.44;;;16.55;100.00
13732;BME280;6937;56.096;12.664;2022-07-06T08:27:54;102175.59;;;16.65;100.00
13732;BME280;6937;56.096;12.664;2022-07-06T08:30:20;102186.81;;;16.72;100.00
13732;BME280;6937;56.096;12.664;2022-07-06T08:32:45;102134.16;;;16.54;100.00
13732;BME280;6937;56.096;12.664;2022-07-06T08:35:11;102141.13;;;16.45;100.00
13732;BME280;6937;56.096;12.664;2022-07-06T08:37:37;102147.59;;;16.42;100.00
13732;BME280;6937;56.096;12.664;2022-07-06T08:40:03;102177.34;;;16.54;100.00
13732;BME280;6937;56.096;12.664;2022-07-06T08:42:34;102202.53;;;16.78;100.00
13732;BME280;6937;56.096;12.664;2022-07-06T08:45:02;102206.59;;;16.83;100.00
13732;BME280;6937;56.096;12.664;2022-07-06T08:47:28;102205.91;;;16.92;100.00
13732;BME280;6937;56.096;12.664;2022-07-06T08:49:54;102181.34;;;16.84;100.00
13732;BME280;6937;56.096;12.664;2022-07-06T08:52:21;102182.47;;;16.93;100.00
13732;BME280;6937;56.096;12.664;2022-07-06T08:54:46;102185.69;;;16.98;100.00
13732;BME280;6937;56.096;12.664;2022-07-06T08:57:12;102200.28;;;16.96;100.00
13732;BME280;6937;56.096;12.664;2022-07-06T08:59:38;102144.94;;;16.54;100.00
13732;BME280;6937;56.096;12.664;2022-07-06T09:02:04;102175.22;;;16.59;100.00
13732;BME280;6937;56.096;12.664;2022-07-06T09:04:32;102152.38;;;16.39;100.00
13732;BME280;6937;56.096;12.664;2022-07-06T09:06:58;102203.25;;;16.32;100.00
13732;BME280;6937;56.096;12.664;2022-07-06T09:09:24;102198.50;;;16.23;100.00
13732;BME280;6937;56.096;12.664;2022-07-06T09:11:50;102202.19;;;16.22;100.00
13732;BME280;6937;56.096;12.664;2022-07-06T09:14:16;102215.78;;;16.21;100.00
13732;BME280;6937;56.096;12.664;2022-07-06T09:16:42;102205.03;;;16.08;100.00
13732;BME280;6937;56.096;12.664;2022-07-06T09:19:10;102222.84;;;16.11;100.00
13732;BME280;6937;56.096;12.664;2022-07-06T09:21:36;102198.25;;;16.03;100.00
13732;BME280;6937;56.096;12.664;2022-07-06T09:24:06;102145.28;;;16.02;100.00
13732;BME280;6937;56.096;12.664;2022-07-06T09:26:32;102120.59;;;15.95;100.00
13732;BME280;6937;56.096;12.664;2022-07-06T09:28:59;102124.88;;;16.10;100.00
13732;BME280;6937;56.096;12.664;2022-07-06T09:31:25;102122.34;;;16.20;100.00
13732;BME280;6937;56.096;12.664;2022-07-06T09:33:58;102146.97;;;16.39;100.00
13732;BME280;6937;56.096;12.664;2022-07-06T09:36:45;102136.06;;;16.40;100.00
13732;BME280;6937;56.096;12.664;2022-07-06T09:39:19;102120.41;;;16.22;100.00
13732;BME280;6937;56.096;12.664;2022-07-06T09:41:50;102131.66;;;16.39;100.00
13732;BME280;6937;56.096;12.664;2022-07-06T09:44:27;102150.47;;;16.52;100.00
13732;BME280;6937;56.096;12.664;2022-07-06T09:46:55;102150.44;;;16.65;100.00
13732;BME280;6937;56.096;12.664;2022-07-06T09:49:21;102179.44;;;16.74;100.00
13732;BME280;6937;56.096;12.664;2022-07-06T09:51:50;102163.56;;;16.93;100.00
13732;BME280;6937;56.096;12.664;2022-07-06T09:54:16;102148.25;;;17.05;100.00
13732;BME280;6937;56.096;12.664;2022-07-06T09:56:44;102152.13;;;17.24;100.00
13732;BME280;6937;56.096;12.664;2022-07-06T09:59:12;102123.38;;;17.34;100.00
13732;BME280;6937;56.096;12.664;2022-07-06T10:01:38;102119.56;;;17.37;100.00
13732;BME280;6937;56.096;12.664;2022-07-06T10:04:06;102148.22;;;17.51;100.00
13732;BME280;6937;56.096;12.664;2022-07-06T10:06:32;102132.63;;;17.54;100.00
13732;BME280;6937;56.096;12.664;2022-07-06T10:08:58;102051.38;;;17.45;100.00
13732;BME280;6937;56.096;12.664;2022-07-06T10:11:24;102037.50;;;17.38;100.00
13732;BME280;6937;56.096;12.664;2022-07-06T10:13:55;102044.84;;;17.47;100.00
13732;BME280;6937;56.096;12.664;2022-07-06T10:16:22;102029.03;;;17.43;100.00
13732;BME280;6937;56.096;12.664;2022-07-06T10:18:48;102029.75;;;17.45;100.00
13732;BME280;6937;56.096;12.664;2022-07-06T10:21:16;102046.31;;;17.51;100.00
13732;BME280;6937;56.096;12.664;2022-07-06T10:23:42;102060.25;;;17.47;100.00
13732;BME280;6937;56.096;12.664;2022-07-06T10:26:09;102050.75;;;17.52;100.00
13732;BME280;6937;56.096;12.664;2022-07-06T10:28:35;102079.66;;;17.63;100.00
13732;BME280;6937;56.096;12.664;2022-07-06T10:31:01;102032.34;;;17.46;100.00
13732;BME280;6937;56.096;12.664;2022-07-06T10:33:27;102046.47;;;17.38;100.00
13732;BME280;6937;56.096;12.664;2022-07-06T10:35:52;102056.91;;;17.21;100.00
13732;BME280;6937;56.096;12.664;2022-07-06T10:38:30;102070.53;;;17.08;100.00
13732;BME280;6937;56.096;12.664;2022-07-06T10:41:07;102118.06;;;17.22;100.00
13732;BME280;6937;56.096;12.664;2022-07-06T10:43:33;102156.81;;;17.45;100.00
13732;BME280;6937;56.096;12.664;2022-07-06T10:46:05;102141.84;;;17.63;100.00
13732;BME280;6937;56.096;12.664;2022-07-06T10:48:38;102118.09;;;17.55;100.00
13732;BME280;6937;56.096;12.664;2022-07-06T10:51:05;102114.75;;;17.29;100.00
13732;BME280;6937;56.096;12.664;2022-07-06T10:53:36;102127.81;;;17.24;100.00
13732;BME280;6937;56.096;12.664;2022-07-06T10:56:09;102120.16;;;17.18;100.00
13732;BME280;6937;56.096;12.664;2022-07-06T10:58:47;102140.03;;;17.17;100.00
13732;BME280;6937;56.096;12.664;2022-07-06T11:01:20;102092.47;;;16.92;100.00
13732;BME280;6937;56.096;12.664;2022-07-06T11:03:46;102137.75;;;17.24;100.00
13732;BME280;6937;56.096;12.664;2022-07-06T11:06:20;102130.63;;;17.34;100.00
13732;BME280;6937;56.096;12.664;2022-07-06T11:08:56;102113.06;;;17.39;100.00
13732;BME280;6937;56.096;12.664;2022-07-06T11:11:37;102110.59;;;17.48;100.00
13732;BME280;6937;56.096;12.664;2022-07-06T11:14:15;102107.78;;;17.49;100.00
13732;BME280;6937;56.096;12.664;2022-07-06T11:19:17;102100.38;;;17.29;100.00
13732;BME280;6937;56.096;12.664;2022-07-06T11:21:53;102100.34;;;17.07;100.00
13732;BME280;6937;56.096;12.664;2022-07-06T11:26:50;102111.13;;;16.84;100.00
13732;BME280;6937;56.096;12.664;2022-07-06T11:29:18;102116.44;;;16.97;100.00
13732;BME280;6937;56.096;12.664;2022-07-06T11:31:47;102104.00;;;16.95;100.00
13732;BME280;6937;56.096;12.664;2022-07-06T11:34:18;102101.09;;;16.98;100.00
13732;BME280;6937;56.096;12.664;2022-07-06T11:36:43;102135.25;;;17.21;100.00
13732;BME280;6937;56.096;12.664;2022-07-06T11:39:09;102114.91;;;17.17;100.00
13732;BME280;6937;56.096;12.664;2022-07-06T11:41:35;102138.63;;;17.35;100.00
13732;BME280;6937;56.096;12.664;2022-07-06T11:44:02;102115.63;;;17.41;100.00
13732;BME280;6937;56.096;12.664;2022-07-06T11:46:32;102161.78;;;17.73;100.00
13732;BME280;6937;56.096;12.664;2022-07-06T11:49:08;102127.47;;;17.96;100.00
13732;BME280;6937;56.096;12.664;2022-07-06T11:51:36;102136.28;;;18.09;100.00
13732;BME280;6937;56.096;12.664;2022-07-06T11:54:22;102138.72;;;18.12;100.00
13732;BME280;6937;56.096;12.664;2022-07-06T11:56:55;102091.91;;;17.89;100.00
13732;BME280;6937;56.096;12.664;2022-07-06T11:59:29;102092.78;;;17.90;100.00
13732;BME280;6937;56.096;12.664;2022-07-06T12:01:59;102096.81;;;18.06;100.00
13732;BME280;6937;56.096;12.664;2022-07-06T12:04:25;102111.00;;;18.30;100.00
13732;BME280;6937;56.096;12.664;2022-07-06T12:06:51;102100.88;;;18.44;100.00
13732;BME280;6937;56.096;12.664;2022-07-06T12:09:16;102075.50;;;18.45;100.00
13732;BME280;6937;56.096;12.664;2022-07-06T12:11:44;102089.97;;;18.66;100.00
13732;BME280;6937;56.096;12.664;2022-07-06T12:14:16;102075.19;;;18.70;100.00
13732;BME280;6937;56.096;12.664;2022-07-06T12:16:43;102066.78;;;18.73;100.00
13732;BME280;6937;56.096;12.664;2022-07-06T12:19:08;102083.44;;;18.89;100.00
13732;BME280;6937;56.096;12.664;2022-07-06T12:21:42;102082.34;;;19.01;100.00
13732;BME280;6937;56.096;12.664;2022-07-06T12:24:08;102091.06;;;19.25;100.00
13732;BME280;6937;56.096;12.664;2022-07-06T12:26:39;102039.84;;;19.22;100.00
13732;BME280;6937;56.096;12.664;2022-07-06T12:29:07;102035.53;;;19.20;100.00
13732;BME280;6937;56.096;12.664;2022-07-06T12:31:38;102051.13;;;19.27;100.00
13732;BME280;6937;56.096;12.664;2022-07-06T12:34:05;102012.16;;;19.19;100.00
13732;BME280;6937;56.096;12.664;2022-07-06T12:36:31;102029.00;;;19.22;100.00
13732;BME280;6937;56.096;12.664;2022-07-06T12:39:11;102063.28;;;19.33;100.00
13732;BME280;6937;56.096;12.664;2022-07-06T12:41:44;102013.25;;;19.16;100.00
13732;BME280;6937;56.096;12.664;2022-07-06T12:44:10;102057.31;;;19.09;100.00